createdAt,value
2022-10-17T00:01:00.764Z,10.70
2022-10-17T00:04:02.537Z,7.60
2022-10-17T00:07:04.244Z,11.68
2022-10-17T00:10:07.996Z,12.18
2022-10-17T00:13:10.056Z,9.52
2022-10-17T00:16:12.658Z,12.60
2022-10-17T00:19:14.308Z,8.83
2022-10-17T00:22:16.050Z,8.95
2022-10-17T00:25:18.604Z,7.30
2022-10-17T00:28:20.274Z,7.60
2022-10-17T00:31:23.618Z,8.05
2022-10-17T00:34:25.946Z,8.80
2022-10-17T00:37:28.035Z,7.53
2022-10-17T00:40:29.717Z,7.35
2022-10-17T00:44:03.263Z,8.68
2022-10-17T00:47:09.424Z,7.13
2022-10-17T00:50:12.904Z,9.98
2022-10-17T00:56:17.289Z,7.07
2022-10-17T00:59:21.753Z,8.53
2022-10-17T01:02:23.940Z,6.97
2022-10-17T01:05:26.092Z,6.95
2022-10-17T01:08:27.956Z,9.93
2022-10-17T01:11:32.438Z,7.88
2022-10-17T01:15:05.268Z,9.73
2022-10-17T01:18:29.010Z,8.77
2022-10-17T01:21:42.101Z,6.40
2022-10-17T01:25:03.562Z,6.93
2022-10-17T01:28:17.106Z,6.35
2022-10-17T01:31:23.805Z,10.57
2022-10-17T01:34:37.904Z,6.03
2022-10-17T01:37:50.883Z,10.88
2022-10-17T01:41:02.411Z,8.30
2022-10-17T01:44:11.937Z,9.43
2022-10-17T01:47:21.563Z,7.35
2022-10-17T01:50:38.828Z,11.40
2022-10-17T01:53:47.025Z,8.90
2022-10-17T01:56:53.190Z,5.65
2022-10-17T01:59:56.541Z,8.70
2022-10-17T02:06:06.810Z,8.57
2022-10-17T02:09:21.193Z,7.32
2022-10-17T02:12:49.849Z,9.15
2022-10-17T02:16:14.105Z,6.72
2022-10-17T02:19:59.687Z,8.15
2022-10-17T02:23:10.922Z,9.13
2022-10-17T02:26:26.039Z,11.68
2022-10-17T02:29:43.696Z,6.05
2022-10-17T02:33:05.574Z,5.68
2022-10-17T02:36:17.158Z,6.95
2022-10-17T02:39:22.091Z,5.78
2022-10-17T02:42:26.399Z,7.82
2022-10-17T02:45:30.216Z,5.10
2022-10-17T02:48:38.760Z,6.80
2022-10-17T02:51:52.899Z,9.52
2022-10-17T02:55:08.983Z,5.93
2022-10-17T02:58:18.152Z,8.63
2022-10-17T03:01:20.577Z,6.75
2022-10-17T03:04:22.380Z,8.10
2022-10-17T03:07:24.332Z,5.57
2022-10-17T03:10:25.987Z,8.50
2022-10-17T03:13:28.604Z,9.27
2022-10-17T03:16:30.309Z,11.47
2022-10-17T03:19:32.009Z,8.52
2022-10-17T03:22:34.284Z,8.23
2022-10-17T03:25:36.167Z,7.18
2022-10-17T03:28:37.978Z,5.78
2022-10-17T03:31:39.790Z,8.50
2022-10-17T03:34:41.567Z,8.20
2022-10-17T03:37:43.373Z,5.40
2022-10-17T03:40:45.062Z,6.25
2022-10-17T03:43:46.823Z,8.52
2022-10-17T03:46:48.766Z,7.05
2022-10-17T03:49:50.516Z,6.97
2022-10-17T03:52:52.161Z,10.82
2022-10-17T03:55:54.042Z,7.13
2022-10-17T03:58:57.042Z,6.43
2022-10-17T04:01:58.921Z,8.98
2022-10-17T04:05:01.112Z,6.40
2022-10-17T04:08:04.814Z,6.43
2022-10-17T04:11:08.655Z,5.50
2022-10-17T04:14:10.838Z,11.23
2022-10-17T04:17:12.566Z,7.85
2022-10-17T04:20:14.491Z,7.38
2022-10-17T04:23:16.319Z,6.80
2022-10-17T04:26:18.033Z,6.95
2022-10-17T04:29:19.852Z,6.95
2022-10-17T04:32:21.752Z,7.32
2022-10-17T04:35:23.676Z,6.57
2022-10-17T04:38:28.471Z,5.90
2022-10-17T04:41:30.494Z,5.45
2022-10-17T04:44:33.794Z,5.28
2022-10-17T04:47:35.527Z,7.35
2022-10-17T04:50:37.280Z,5.10
2022-10-17T04:53:40.392Z,7.22
2022-10-17T04:56:42.365Z,6.35
2022-10-17T04:59:44.887Z,7.63
2022-10-17T05:02:47.252Z,6.80
2022-10-17T05:05:49.249Z,6.15
2022-10-17T05:08:51.325Z,7.55
2022-10-17T05:11:53.191Z,7.93
2022-10-17T05:14:54.889Z,8.77
2022-10-17T05:17:57.510Z,8.27
2022-10-17T05:20:59.276Z,7.50
2022-10-17T05:24:00.937Z,8.13
2022-10-17T05:27:02.814Z,9.02
2022-10-17T05:30:05.457Z,7.47
2022-10-17T05:33:07.379Z,7.50
2022-10-17T05:36:09.856Z,6.38
2022-10-17T05:39:14.886Z,7.53
2022-10-17T05:42:16.579Z,5.15
2022-10-17T05:45:18.718Z,6.50
2022-10-17T05:48:21.630Z,6.32
2022-10-17T05:51:23.294Z,10.13
2022-10-17T05:54:25.364Z,6.85
2022-10-17T05:57:28.343Z,5.20
2022-10-17T06:00:30.449Z,5.75
2022-10-17T06:03:33.608Z,7.07
2022-10-17T06:06:38.089Z,8.18
2022-10-17T06:09:40.187Z,6.07
2022-10-17T06:12:42.731Z,7.07
2022-10-17T06:15:45.235Z,4.83
2022-10-17T06:21:53.846Z,8.80
2022-10-17T06:24:55.536Z,5.35
2022-10-17T06:27:57.230Z,7.95
2022-10-17T06:30:58.934Z,10.05
2022-10-17T06:34:00.889Z,5.55
2022-10-17T06:37:02.571Z,11.18
2022-10-17T06:40:05.298Z,5.78
2022-10-17T06:43:07.354Z,11.45
2022-10-17T06:46:09.339Z,8.13
2022-10-17T06:49:11.179Z,5.95
2022-10-17T06:52:13.062Z,5.30
2022-10-17T06:55:16.924Z,8.38
2022-10-17T06:58:22.389Z,7.78
2022-10-17T07:01:24.334Z,9.93
2022-10-17T07:04:26.231Z,9.95
2022-10-17T07:07:31.634Z,7.68
2022-10-17T07:10:38.233Z,8.45
2022-10-17T07:13:40.515Z,6.38
2022-10-17T07:16:42.295Z,5.38
2022-10-17T07:19:44.061Z,6.85
2022-10-17T07:22:45.730Z,12.73
2022-10-17T07:25:47.537Z,6.75
2022-10-17T07:28:53.112Z,7.35
2022-10-17T07:31:55.007Z,6.88
2022-10-17T07:34:57.000Z,6.55
2022-10-17T07:37:58.895Z,8.95
2022-10-17T07:41:02.913Z,5.68
2022-10-17T07:44:04.897Z,4.53
2022-10-17T07:47:06.658Z,7.22
2022-10-17T07:50:08.881Z,10.02
2022-10-17T07:53:10.924Z,3.88
2022-10-17T07:56:14.313Z,8.35
2022-10-17T08:02:25.420Z,4.40
2022-10-17T08:05:27.242Z,6.95
2022-10-17T08:08:29.902Z,5.18
2022-10-17T08:11:31.642Z,6.05
2022-10-17T08:14:33.453Z,7.97
2022-10-17T08:17:36.596Z,7.85
2022-10-17T08:20:38.327Z,4.40
2022-10-17T08:23:40.715Z,10.50
2022-10-17T08:26:43.530Z,5.40
2022-10-17T08:29:48.828Z,6.32
2022-10-17T08:32:50.698Z,4.85
2022-10-17T08:35:52.719Z,8.55
2022-10-17T08:38:54.542Z,6.75
2022-10-17T08:42:16.408Z,4.90
2022-10-17T08:45:30.265Z,7.65
2022-10-17T08:48:42.724Z,7.78
2022-10-17T08:51:55.884Z,5.68
2022-10-17T08:54:57.890Z,6.85
2022-10-17T08:58:00.756Z,10.55
2022-10-17T09:01:27.511Z,7.78
2022-10-17T09:04:47.951Z,8.45
2022-10-17T09:08:14.463Z,8.27
2022-10-17T09:11:39.151Z,7.03
2022-10-17T09:14:43.896Z,7.82
2022-10-17T09:17:57.137Z,8.00
2022-10-17T09:21:23.199Z,10.93
2022-10-17T09:24:39.149Z,9.80
2022-10-17T09:27:45.625Z,9.48
2022-10-17T09:30:56.997Z,10.73
2022-10-17T09:34:02.328Z,9.52
2022-10-17T09:37:09.581Z,6.80
2022-10-17T09:40:24.218Z,4.38
2022-10-17T09:43:26.715Z,7.00
2022-10-17T09:46:38.065Z,7.53
2022-10-17T09:49:43.442Z,9.48
2022-10-17T09:52:47.793Z,9.07
2022-10-17T09:55:56.201Z,6.40
2022-10-17T09:58:59.126Z,8.77
2022-10-17T10:02:12.691Z,7.47
2022-10-17T10:05:20.570Z,7.03
2022-10-17T10:08:25.697Z,8.15
2022-10-17T10:11:49.846Z,11.15
2022-10-17T10:14:54.690Z,6.43
2022-10-17T10:17:57.322Z,6.88
2022-10-17T10:21:20.669Z,9.23
2022-10-17T10:24:26.933Z,9.70
2022-10-17T10:30:36.202Z,6.50
2022-10-17T10:33:45.898Z,9.25
2022-10-17T10:36:56.531Z,7.45
2022-10-17T10:40:04.316Z,7.45
2022-10-17T10:43:06.584Z,7.85
2022-10-17T10:46:17.470Z,8.02
2022-10-17T10:49:30.850Z,7.10
2022-10-17T10:52:46.349Z,8.13
2022-10-17T10:55:53.379Z,7.25
2022-10-17T10:59:03.159Z,6.25
2022-10-17T11:02:14.973Z,9.30
2022-10-17T11:05:21.095Z,8.65
2022-10-17T11:09:14.192Z,8.43
2022-10-17T11:12:21.800Z,9.15
2022-10-17T11:15:33.826Z,7.88
2022-10-17T11:18:55.004Z,7.30
2022-10-17T11:22:15.743Z,7.22
2022-10-17T11:25:25.367Z,10.10
2022-10-17T11:28:27.784Z,6.07
2022-10-17T11:31:34.735Z,6.23
2022-10-17T11:34:44.112Z,7.13
2022-10-17T11:37:53.689Z,6.55
2022-10-17T11:40:58.795Z,8.48
2022-10-17T11:44:25.341Z,5.47
2022-10-17T11:47:30.111Z,4.85
2022-10-17T11:54:06.869Z,6.50
2022-10-17T11:57:39.817Z,7.82
2022-10-17T12:01:01.599Z,11.35
2022-10-17T12:04:55.340Z,5.85
2022-10-17T12:08:10.520Z,8.60
2022-10-17T12:11:24.025Z,5.97
2022-10-17T12:14:46.916Z,8.82
2022-10-17T12:18:01.015Z,8.98
2022-10-17T12:21:03.422Z,14.95
2022-10-17T12:24:05.285Z,9.40
2022-10-17T12:27:31.946Z,8.43
2022-10-17T12:30:35.017Z,10.65
2022-10-17T12:33:51.879Z,9.63
2022-10-17T12:36:53.715Z,8.57
2022-10-17T12:39:55.421Z,8.13
2022-10-17T12:42:57.074Z,5.65
2022-10-17T12:46:03.775Z,5.07
2022-10-17T12:49:38.503Z,7.28
2022-10-17T12:52:40.500Z,6.35
2022-10-17T12:55:42.488Z,7.88
2022-10-17T12:58:50.216Z,9.32
2022-10-17T13:01:57.557Z,7.45
2022-10-17T13:05:08.073Z,7.95
2022-10-17T13:08:27.344Z,14.30
2022-10-17T13:11:32.337Z,5.47
2022-10-17T13:14:34.772Z,7.70
2022-10-17T13:17:38.744Z,6.97
2022-10-17T13:20:43.485Z,8.52
2022-10-17T13:23:45.451Z,9.60
2022-10-17T13:26:47.482Z,9.30
2022-10-17T13:29:49.547Z,5.75
2022-10-17T13:32:51.744Z,8.75
2022-10-17T13:36:00.573Z,6.72
2022-10-17T13:39:12.192Z,6.15
2022-10-17T13:42:39.125Z,5.40
2022-10-17T13:45:51.565Z,6.53
2022-10-17T13:48:53.685Z,10.75
2022-10-17T13:51:57.838Z,6.65
2022-10-17T13:55:17.480Z,8.32
2022-10-17T13:58:20.535Z,4.88
2022-10-17T14:01:22.776Z,6.45
2022-10-17T14:04:24.493Z,9.27
2022-10-17T14:08:10.130Z,6.60
2022-10-17T14:11:24.108Z,10.40
2022-10-17T14:14:26.892Z,8.45
2022-10-17T14:17:29.841Z,4.53
2022-10-17T14:21:31.689Z,4.82
2022-10-17T14:24:27.063Z,8.03
2022-10-17T14:33:57.905Z,9.55
2022-10-17T14:37:00.236Z,4.38
2022-10-17T14:40:04.883Z,10.23
2022-10-17T14:43:06.983Z,7.10
2022-10-17T14:46:16.868Z,6.47
2022-10-17T14:49:27.503Z,7.70
2022-10-17T14:52:31.269Z,6.88
2022-10-17T14:55:37.870Z,5.47
2022-10-17T14:58:40.043Z,5.03
2022-10-17T15:01:41.747Z,7.45
2022-10-17T15:04:43.724Z,5.15
2022-10-17T15:07:45.627Z,6.22
2022-10-17T15:10:49.619Z,7.43
2022-10-17T15:13:52.279Z,4.85
2022-10-17T15:16:54.027Z,7.88
2022-10-17T15:19:57.012Z,9.50
2022-10-17T15:23:00.918Z,8.98
2022-10-17T15:26:02.681Z,4.65
2022-10-17T15:29:05.021Z,5.55
2022-10-17T15:32:06.745Z,3.85
2022-10-17T15:35:09.213Z,5.50
2022-10-17T15:38:15.930Z,5.47
2022-10-17T15:41:17.943Z,6.68
2022-10-17T15:44:19.744Z,5.28
2022-10-17T15:47:29.178Z,5.38
2022-10-17T15:50:31.489Z,4.70
2022-10-17T15:53:33.386Z,5.68
2022-10-17T15:56:40.196Z,5.07
2022-10-17T15:59:41.972Z,4.85
2022-10-17T16:02:44.834Z,4.03
2022-10-17T16:05:46.620Z,4.70
2022-10-17T16:08:49.544Z,6.30
2022-10-17T16:11:51.221Z,4.43
2022-10-17T16:14:53.136Z,6.15
2022-10-17T16:17:57.233Z,3.38
2022-10-17T16:20:58.976Z,6.25
2022-10-17T16:24:01.011Z,3.75
2022-10-17T16:27:02.768Z,5.32
2022-10-17T16:30:06.559Z,5.43
2022-10-17T16:33:09.714Z,6.68
2022-10-17T16:36:11.446Z,5.10
2022-10-17T16:39:13.102Z,5.18
2022-10-17T16:42:14.851Z,4.60
2022-10-17T16:45:19.342Z,7.35
2022-10-17T16:48:22.381Z,4.07
2022-10-17T16:51:26.224Z,5.13
2022-10-17T16:54:27.955Z,6.25
2022-10-17T16:57:30.831Z,6.95
2022-10-17T17:00:33.007Z,5.13
2022-10-17T17:03:37.210Z,3.42
2022-10-17T17:06:38.984Z,4.45
2022-10-17T17:09:40.828Z,3.88
2022-10-17T17:12:42.774Z,2.50
2022-10-17T17:18:49.175Z,3.08
2022-10-17T17:21:51.099Z,2.50
2022-10-17T17:24:52.977Z,4.00
2022-10-17T17:27:54.671Z,3.08
2022-10-17T17:30:56.656Z,2.97
2022-10-17T17:33:58.938Z,3.30
2022-10-17T17:37:00.997Z,2.35
2022-10-17T17:40:03.003Z,2.63
2022-10-17T17:43:05.120Z,2.72
2022-10-17T17:46:08.465Z,5.28
2022-10-17T17:49:11.569Z,3.15
2022-10-17T17:52:13.367Z,1.90
2022-10-17T17:55:15.239Z,3.72
2022-10-17T17:58:18.553Z,2.58
2022-10-17T18:01:22.775Z,4.78
2022-10-17T18:04:24.478Z,2.85
2022-10-17T18:07:26.146Z,3.45
2022-10-17T18:10:29.569Z,1.85
2022-10-17T18:16:35.561Z,3.92
2022-10-17T18:19:37.421Z,1.52
2022-10-17T18:22:39.133Z,3.17
2022-10-17T18:25:41.128Z,1.58
2022-10-17T18:28:43.594Z,2.28
2022-10-17T18:31:45.379Z,3.40
2022-10-17T18:34:47.291Z,5.75
2022-10-17T18:37:49.905Z,6.20
2022-10-17T18:41:05.870Z,6.72
2022-10-17T18:44:07.869Z,7.22
2022-10-17T18:47:10.716Z,17.75
2022-10-17T18:50:12.517Z,24.30
2022-10-17T18:53:14.619Z,30.92
2022-10-17T18:56:17.550Z,23.42
2022-10-17T18:59:20.440Z,8.05
2022-10-17T19:02:22.677Z,5.65
2022-10-17T19:05:24.338Z,2.90
2022-10-17T19:08:26.058Z,3.50
2022-10-17T19:11:30.389Z,2.90
2022-10-17T19:14:32.294Z,2.30
2022-10-17T19:17:34.191Z,2.30
2022-10-17T19:20:36.181Z,1.88
2022-10-17T19:23:38.438Z,2.60
2022-10-17T19:26:41.651Z,3.22
2022-10-17T19:29:44.067Z,1.88
2022-10-17T19:32:45.977Z,3.42
2022-10-17T19:35:56.680Z,3.30
2022-10-17T19:38:58.941Z,5.20
2022-10-17T19:42:05.904Z,3.20
2022-10-17T19:45:09.537Z,4.65
2022-10-17T19:48:11.357Z,4.97
2022-10-17T19:51:16.182Z,2.80
2022-10-17T19:54:20.216Z,6.10
2022-10-17T19:57:22.414Z,5.82
2022-10-17T20:00:24.112Z,7.03
2022-10-17T20:03:26.121Z,4.25
2022-10-17T20:06:28.024Z,4.03
2022-10-17T20:09:30.022Z,4.57
2022-10-17T20:12:33.060Z,2.75
2022-10-17T20:15:35.353Z,3.28
2022-10-17T20:18:38.108Z,2.90
2022-10-17T20:21:40.289Z,4.82
2022-10-17T20:24:42.076Z,3.42
2022-10-17T20:27:43.844Z,3.53
2022-10-17T20:30:46.462Z,5.43
2022-10-17T20:33:48.465Z,6.00
2022-10-17T20:36:50.419Z,15.30
2022-10-17T20:40:10.686Z,3.35
2022-10-17T20:43:14.323Z,3.97
2022-10-17T20:46:34.909Z,4.13
2022-10-17T20:49:37.505Z,2.70
2022-10-17T20:52:39.420Z,4.47
2022-10-17T20:55:41.892Z,5.43
2022-10-17T20:58:44.022Z,3.37
2022-10-17T21:01:46.866Z,3.22
2022-10-17T21:04:50.005Z,4.15
2022-10-17T21:07:51.896Z,5.25
2022-10-17T21:10:53.814Z,6.60
2022-10-17T21:14:01.192Z,5.45
2022-10-17T21:17:05.200Z,5.93
2022-10-17T21:20:07.922Z,5.05
2022-10-17T21:23:09.657Z,4.40
2022-10-17T21:26:12.816Z,5.63
2022-10-17T21:29:14.793Z,7.20
2022-10-17T21:32:31.830Z,4.57
2022-10-17T21:35:38.326Z,5.45
2022-10-17T21:38:40.985Z,4.95
2022-10-17T21:41:43.953Z,8.38
2022-10-17T21:44:45.889Z,5.68
2022-10-17T21:48:11.241Z,7.70
2022-10-17T21:51:12.131Z,8.73
2022-10-17T21:54:15.082Z,7.03
2022-10-17T22:00:24.412Z,7.35
2022-10-17T22:03:26.347Z,8.90
2022-10-17T22:06:47.105Z,9.52
2022-10-17T22:09:48.881Z,11.25
2022-10-17T22:12:50.965Z,11.70
2022-10-17T22:15:52.641Z,9.45
2022-10-17T22:19:03.092Z,9.38
2022-10-17T22:22:07.786Z,8.90
2022-10-17T22:25:09.865Z,11.20
2022-10-17T22:28:11.539Z,10.20
2022-10-17T22:31:13.405Z,9.27
2022-10-17T22:34:16.428Z,8.75
2022-10-17T22:37:18.262Z,9.68
2022-10-17T22:40:20.283Z,10.50
2022-10-17T22:43:21.976Z,11.95
2022-10-17T22:46:23.930Z,10.38
2022-10-17T22:49:25.883Z,11.98
2022-10-17T22:52:27.965Z,12.40
2022-10-17T22:55:29.793Z,11.45
2022-10-17T22:58:34.121Z,12.95
2022-10-17T23:01:36.247Z,11.82
2022-10-17T23:04:38.091Z,8.52
2022-10-17T23:07:39.780Z,11.68
2022-10-17T23:10:41.896Z,12.90
2022-10-17T23:13:43.891Z,18.88
2022-10-17T23:16:45.910Z,10.10
2022-10-17T23:19:47.654Z,9.60
2022-10-17T23:22:49.310Z,10.27
2022-10-17T23:25:51.578Z,10.52
2022-10-17T23:28:56.406Z,13.20
2022-10-17T23:31:58.369Z,12.60
2022-10-17T23:35:00.292Z,11.82
2022-10-17T23:38:02.404Z,10.85
2022-10-17T23:41:04.769Z,11.48
2022-10-17T23:44:06.730Z,12.88
2022-10-17T23:47:08.493Z,10.45
2022-10-17T23:50:10.301Z,9.77
2022-10-17T23:53:11.994Z,10.32
2022-10-17T23:56:14.155Z,9.23
2022-10-17T23:59:16.617Z,13.93
